createdAt,value
2022-09-17T00:00:11.694Z,11.4
2022-09-17T00:03:12.292Z,11.4
2022-09-17T00:06:11.726Z,11.4
2022-09-17T00:09:11.788Z,11.4
2022-09-17T00:12:11.762Z,11.4
2022-09-17T00:15:11.710Z,11.4
2022-09-17T00:18:11.744Z,11.4
2022-09-17T00:21:11.721Z,11.4
2022-09-17T00:24:11.785Z,11.4
2022-09-17T00:27:11.812Z,11.4
2022-09-17T00:30:11.833Z,11.5
2022-09-17T00:33:11.622Z,11.5
2022-09-17T00:36:11.729Z,11.5
2022-09-17T00:39:11.741Z,11.5
2022-09-17T00:42:11.771Z,11.5
2022-09-17T00:45:11.691Z,11.5
2022-09-17T00:48:11.746Z,11.5
2022-09-17T00:51:11.763Z,11.5
2022-09-17T00:54:11.730Z,11.5
2022-09-17T00:57:11.950Z,11.5
2022-09-17T01:00:11.776Z,11.6
2022-09-17T01:03:11.733Z,11.5
2022-09-17T01:06:11.736Z,11.6
2022-09-17T01:09:11.729Z,11.6
2022-09-17T01:12:11.863Z,11.6
2022-09-17T01:15:11.731Z,11.6
2022-09-17T01:18:11.695Z,11.6
2022-09-17T01:21:11.661Z,11.6
2022-09-17T01:24:11.923Z,11.6
2022-09-17T01:27:11.701Z,11.6
2022-09-17T01:30:11.771Z,11.6
2022-09-17T01:33:11.727Z,11.6
2022-09-17T01:36:12.000Z,11.6
2022-09-17T01:39:11.704Z,11.6
2022-09-17T01:42:12.087Z,11.6
2022-09-17T01:45:11.734Z,11.8
2022-09-17T01:48:11.704Z,11.8
2022-09-17T01:51:11.672Z,11.8
2022-09-17T01:54:11.881Z,11.8
2022-09-17T01:57:11.931Z,11.8
2022-09-17T02:00:11.743Z,11.8
2022-09-17T02:03:11.853Z,11.8
2022-09-17T02:06:11.667Z,11.8
2022-09-17T02:09:17.099Z,11.8
2022-09-17T02:12:11.904Z,11.8
2022-09-17T02:15:11.791Z,11.6
2022-09-17T02:18:11.702Z,11.6
2022-09-17T02:21:11.679Z,11.6
2022-09-17T02:24:11.804Z,11.6
2022-09-17T02:27:11.915Z,11.5
2022-09-17T02:30:11.735Z,11.5
2022-09-17T02:33:11.643Z,11.5
2022-09-17T02:36:11.694Z,11.6
2022-09-17T02:39:11.833Z,11.6
2022-09-17T02:42:11.998Z,11.6
2022-09-17T02:45:11.873Z,11.6
2022-09-17T02:48:11.703Z,11.6
2022-09-17T02:51:11.798Z,11.6
2022-09-17T02:54:11.747Z,11.6
2022-09-17T02:57:11.866Z,11.5
2022-09-17T03:00:11.750Z,11.5
2022-09-17T03:03:11.692Z,11.4
2022-09-17T03:06:11.750Z,11.4
2022-09-17T03:09:11.729Z,11.4
2022-09-17T03:12:11.723Z,11.4
2022-09-17T03:15:11.735Z,11.3
2022-09-17T03:18:11.788Z,11.3
2022-09-17T03:21:11.678Z,11.3
2022-09-17T03:24:11.686Z,11.3
2022-09-17T03:27:11.695Z,11.3
2022-09-17T03:30:11.753Z,11.3
2022-09-17T03:33:11.728Z,11.3
2022-09-17T03:36:11.732Z,11.3
2022-09-17T03:39:11.817Z,11.3
2022-09-17T03:42:11.713Z,11.3
2022-09-17T03:45:11.700Z,11.4
2022-09-17T03:48:11.703Z,11.4
2022-09-17T03:51:11.698Z,11.4
2022-09-17T03:54:11.822Z,11.3
2022-09-17T03:57:11.668Z,11.3
2022-09-17T04:00:11.785Z,11.3
2022-09-17T04:03:11.847Z,11.3
2022-09-17T04:06:11.848Z,11.1
2022-09-17T04:09:11.787Z,11.1
2022-09-17T04:12:11.724Z,11.1
2022-09-17T04:15:11.768Z,11.1
2022-09-17T04:18:11.728Z,11
2022-09-17T04:21:11.779Z,11
2022-09-17T04:24:11.774Z,11
2022-09-17T04:27:11.885Z,11
2022-09-17T04:30:11.837Z,11
2022-09-17T04:33:11.738Z,11
2022-09-17T04:36:11.730Z,11
2022-09-17T04:39:11.799Z,11
2022-09-17T04:42:11.898Z,11
2022-09-17T04:45:11.727Z,11
2022-09-17T04:48:11.696Z,11.1
2022-09-17T04:51:11.708Z,11.1
2022-09-17T04:54:11.796Z,11.1
2022-09-17T04:57:11.751Z,11.1
2022-09-17T05:00:11.800Z,11.3
2022-09-17T05:03:11.731Z,11.3
2022-09-17T05:06:11.882Z,11.3
2022-09-17T05:09:11.924Z,11.3
2022-09-17T05:12:11.809Z,11.3
2022-09-17T05:15:11.713Z,11.4
2022-09-17T05:18:11.780Z,11.4
2022-09-17T05:21:11.717Z,11.4
2022-09-17T05:24:11.724Z,11.5
2022-09-17T05:27:11.807Z,11.6
2022-09-17T05:30:11.962Z,11.8
2022-09-17T05:33:11.721Z,12
2022-09-17T05:36:11.738Z,12.1
2022-09-17T05:39:11.765Z,12.1
2022-09-17T05:42:11.714Z,12.1
2022-09-17T05:45:11.785Z,12.2
2022-09-17T05:48:11.751Z,12.1
2022-09-17T05:51:11.760Z,12.1
2022-09-17T05:54:11.792Z,12.1
2022-09-17T05:57:11.744Z,12
2022-09-17T06:00:11.930Z,11.9
2022-09-17T06:03:12.207Z,11.9
2022-09-17T06:06:11.733Z,12
2022-09-17T06:09:11.783Z,12.2
2022-09-17T06:12:11.777Z,12.5
2022-09-17T06:15:11.712Z,12.9
2022-09-17T06:18:11.730Z,13.4
2022-09-17T06:21:11.788Z,13.8
2022-09-17T06:24:11.696Z,13.8
2022-09-17T06:27:11.729Z,13.4
2022-09-17T06:30:11.760Z,13.1
2022-09-17T06:33:11.775Z,13.6
2022-09-17T06:36:18.768Z,14.3
2022-09-17T06:39:11.742Z,14.6
2022-09-17T06:42:11.707Z,14.6
2022-09-17T06:45:25.327Z,14.6
2022-09-17T06:48:11.679Z,14.9
2022-09-17T06:51:11.706Z,15.3
2022-09-17T06:54:11.728Z,15.6
2022-09-17T06:57:11.739Z,16
2022-09-17T07:00:11.836Z,17.1
2022-09-17T07:03:11.750Z,17.8
2022-09-17T07:06:11.774Z,18.3
2022-09-17T07:09:16.960Z,19.1
2022-09-17T07:12:11.738Z,19.1
2022-09-17T07:15:11.806Z,19.5
2022-09-17T07:18:11.780Z,19.3
2022-09-17T07:21:11.719Z,19.4
2022-09-17T07:24:11.653Z,19.8
2022-09-17T07:27:11.723Z,21.6
2022-09-17T07:30:11.839Z,22.5
2022-09-17T07:33:11.694Z,24.1
2022-09-17T07:36:11.807Z,25.8
2022-09-17T07:39:11.766Z,28
2022-09-17T07:42:11.737Z,25.3
2022-09-17T07:45:13.579Z,24.9
2022-09-17T07:48:11.738Z,24.9
2022-09-17T07:51:11.753Z,27.8
2022-09-17T07:54:11.712Z,29.5
2022-09-17T07:57:11.784Z,31.2
2022-09-17T08:00:12.069Z,32.5
2022-09-17T08:03:12.475Z,33.6
2022-09-17T08:06:11.827Z,34.4
2022-09-17T08:09:11.774Z,34.5
2022-09-17T08:12:11.789Z,34.2
2022-09-17T08:15:11.898Z,35.5
2022-09-17T08:18:11.778Z,33.9
2022-09-17T08:21:11.765Z,33.2
2022-09-17T08:24:11.805Z,33
2022-09-17T08:27:11.796Z,34.1
2022-09-17T08:30:11.975Z,32.2
2022-09-17T08:33:11.932Z,33.4
2022-09-17T08:36:12.678Z,32.1
2022-09-17T08:39:12.597Z,32.6
2022-09-17T08:42:11.847Z,30.4
2022-09-17T08:45:12.264Z,32.4
2022-09-17T08:48:11.771Z,28.9
2022-09-17T08:51:19.553Z,26.2
2022-09-17T08:54:11.761Z,30
2022-09-17T08:57:11.696Z,33.1
2022-09-17T09:00:11.882Z,31.6
2022-09-17T09:03:12.086Z,29.8
2022-09-17T09:06:17.547Z,28.9
2022-09-17T09:09:11.789Z,30.6
2022-09-17T09:12:11.698Z,32.9
2022-09-17T09:15:11.752Z,32
2022-09-17T09:18:11.822Z,32.7
2022-09-17T09:21:11.706Z,32.6
2022-09-17T09:24:12.137Z,29.8
2022-09-17T09:27:11.713Z,27.9
2022-09-17T09:30:11.888Z,30.6
2022-09-17T09:33:11.720Z,32.4
2022-09-17T09:36:11.772Z,34
2022-09-17T09:39:11.735Z,32.5
2022-09-17T09:42:11.734Z,29.6
2022-09-17T09:45:16.664Z,28.9
2022-09-17T09:48:11.803Z,27
2022-09-17T09:51:18.236Z,26.1
2022-09-17T09:54:11.800Z,25.1
2022-09-17T09:57:11.778Z,29
2022-09-17T10:00:11.939Z,30.3
2022-09-17T10:03:12.019Z,28
2022-09-17T10:06:11.822Z,25.9
2022-09-17T10:09:11.764Z,27.1
2022-09-17T10:12:11.843Z,25.4
2022-09-17T10:15:11.775Z,26
2022-09-17T10:18:11.798Z,24.6
2022-09-17T10:21:11.738Z,29.9
2022-09-17T10:24:11.848Z,31
2022-09-17T10:27:11.703Z,33.5
2022-09-17T10:30:12.010Z,35.5
2022-09-17T10:33:11.747Z,35.7
2022-09-17T10:36:11.717Z,35
2022-09-17T10:39:11.685Z,33.2
2022-09-17T10:42:11.778Z,33.2
2022-09-17T10:45:11.713Z,32.1
2022-09-17T10:48:11.692Z,29
2022-09-17T10:51:11.773Z,28.9
2022-09-17T10:54:11.710Z,33.9
2022-09-17T10:57:11.731Z,33.1
2022-09-17T11:00:11.852Z,30.9
2022-09-17T11:03:11.943Z,33.7
2022-09-17T11:06:17.982Z,34.9
2022-09-17T11:09:11.729Z,35.2
2022-09-17T11:12:11.742Z,31.9
2022-09-17T11:15:11.859Z,32
2022-09-17T11:18:11.762Z,30.3
2022-09-17T11:21:11.742Z,34.2
2022-09-17T11:24:11.849Z,33.4
2022-09-17T11:27:11.733Z,36.6
2022-09-17T11:30:11.862Z,38.7
2022-09-17T11:33:11.778Z,40.1
2022-09-17T11:36:11.753Z,38.6
2022-09-17T11:39:11.791Z,40.1
2022-09-17T11:42:11.752Z,38
2022-09-17T11:45:11.755Z,37.5
2022-09-17T11:48:11.747Z,36.4
2022-09-17T11:51:11.754Z,38.2
2022-09-17T11:54:11.725Z,37.5
2022-09-17T11:57:16.587Z,35.5
2022-09-17T12:00:11.794Z,38.7
2022-09-17T12:03:12.333Z,41.4
2022-09-17T12:06:11.827Z,41.6
2022-09-17T12:09:11.774Z,36.9
2022-09-17T12:12:48.219Z,33.2
2022-09-17T12:15:11.720Z,31.5
2022-09-17T12:18:43.563Z,30.4
2022-09-17T12:21:11.745Z,27.8
2022-09-17T12:24:11.758Z,26.1
2022-09-17T12:27:11.731Z,25.3
2022-09-17T12:30:12.117Z,25.5
2022-09-17T12:33:11.755Z,26.2
2022-09-17T12:36:16.849Z,25.3
2022-09-17T12:39:14.609Z,23
2022-09-17T12:42:11.760Z,21.8
2022-09-17T12:45:11.660Z,21.9
2022-09-17T12:48:11.742Z,22.9
2022-09-17T12:51:11.660Z,25
2022-09-17T12:54:11.783Z,27.1
2022-09-17T12:57:12.505Z,27.1
2022-09-17T13:00:19.366Z,26.5
2022-09-17T13:03:11.733Z,25.1
2022-09-17T13:06:11.804Z,23.5
2022-09-17T13:09:11.735Z,21.8
2022-09-17T13:12:11.722Z,20.6
2022-09-17T13:15:11.704Z,20.1
2022-09-17T13:18:41.393Z,19.4
2022-09-17T13:21:11.730Z,18.4
2022-09-17T13:24:11.939Z,17.4
2022-09-17T13:27:11.761Z,16.8
2022-09-17T13:30:11.837Z,16.5
2022-09-17T13:33:12.017Z,16.1
2022-09-17T13:36:11.805Z,15.5
2022-09-17T13:39:11.832Z,15
2022-09-17T13:42:11.725Z,14.6
2022-09-17T13:45:17.911Z,14.3
2022-09-17T13:48:11.750Z,13.9
2022-09-17T13:51:11.667Z,13.6
2022-09-17T13:54:11.901Z,13.6
2022-09-17T13:57:11.720Z,13.5
2022-09-17T14:00:11.785Z,13.5
2022-09-17T14:03:11.968Z,13.3
2022-09-17T14:06:11.781Z,13
2022-09-17T14:09:11.720Z,12.8
2022-09-17T14:12:11.753Z,12.8
2022-09-17T14:15:11.765Z,12.9
2022-09-17T14:18:11.784Z,13.3
2022-09-17T14:21:11.678Z,13.6
2022-09-17T14:24:11.669Z,13.5
2022-09-17T14:27:11.731Z,13.1
2022-09-17T14:30:12.015Z,12.6
2022-09-17T14:33:11.741Z,12.2
2022-09-17T14:36:11.798Z,12.1
2022-09-17T14:39:11.734Z,12
2022-09-17T14:42:11.752Z,11.8
2022-09-17T14:45:11.877Z,11.4
2022-09-17T14:48:11.831Z,11.3
2022-09-17T14:51:11.702Z,11.3
2022-09-17T14:54:11.735Z,11.3
2022-09-17T14:57:11.708Z,11.5
2022-09-17T15:00:17.494Z,11.6
2022-09-17T15:03:12.521Z,11.8
2022-09-17T15:06:11.709Z,11.9
2022-09-17T15:09:11.752Z,12.1
2022-09-17T15:12:11.791Z,12.4
2022-09-17T15:15:11.740Z,12.5
2022-09-17T15:18:11.740Z,12.6
2022-09-17T15:21:11.841Z,12.5
2022-09-17T15:24:11.739Z,12.4
2022-09-17T15:27:11.743Z,12.4
2022-09-17T15:30:12.023Z,12.1
2022-09-17T15:33:11.739Z,11.8
2022-09-17T15:36:11.756Z,11.6
2022-09-17T15:39:11.718Z,11.6
2022-09-17T15:42:11.702Z,11.5
2022-09-17T15:45:11.808Z,11.5
2022-09-17T15:48:17.488Z,11.3
2022-09-17T15:51:11.769Z,11.1
2022-09-17T15:54:17.419Z,11
2022-09-17T15:57:11.728Z,10.8
2022-09-17T16:00:11.803Z,10.6
2022-09-17T16:03:12.312Z,10.6
2022-09-17T16:06:15.968Z,10.6
2022-09-17T16:09:11.741Z,10.6
2022-09-17T16:12:11.713Z,10.5
2022-09-17T16:15:11.804Z,10.5
2022-09-17T16:18:11.710Z,10.5
2022-09-17T16:21:11.704Z,10.4
2022-09-17T16:24:11.827Z,10.4
2022-09-17T16:27:11.812Z,10.3
2022-09-17T16:30:11.698Z,10.3
2022-09-17T16:33:11.731Z,10.3
2022-09-17T16:36:11.755Z,10.3
2022-09-17T16:39:11.763Z,10.1
2022-09-17T16:42:11.729Z,10.3
2022-09-17T16:45:11.729Z,10.3
2022-09-17T16:48:11.732Z,10.3
2022-09-17T16:51:11.797Z,10.3
2022-09-17T16:54:11.737Z,10.1
2022-09-17T16:57:11.772Z,10.1
2022-09-17T17:00:12.073Z,10.1
2022-09-17T17:03:12.213Z,10.3
2022-09-17T17:06:11.757Z,10.3
2022-09-17T17:09:11.818Z,10.3
2022-09-17T17:12:11.670Z,10.4
2022-09-17T17:15:11.804Z,10.4
2022-09-17T17:18:11.818Z,10.4
2022-09-17T17:21:11.672Z,10.3
2022-09-17T17:24:11.718Z,10.3
2022-09-17T17:27:11.733Z,10.3
2022-09-17T17:30:11.750Z,10.1
2022-09-17T17:33:11.851Z,10.1
2022-09-17T17:36:19.414Z,10.1
2022-09-17T17:39:11.666Z,10.1
2022-09-17T17:42:11.719Z,10.1
2022-09-17T17:45:11.760Z,10.1
2022-09-17T17:48:11.620Z,10.1
2022-09-17T17:51:11.905Z,10.1
2022-09-17T17:54:11.709Z,10
2022-09-17T17:57:11.734Z,10.1
2022-09-17T18:00:11.780Z,10
2022-09-17T18:03:12.493Z,10.1
2022-09-17T18:06:12.052Z,10
2022-09-17T18:09:11.717Z,10
2022-09-17T18:12:11.684Z,10
2022-09-17T18:15:11.729Z,10
2022-09-17T18:18:13.168Z,10
2022-09-17T18:21:11.919Z,10
2022-09-17T18:24:11.720Z,10
2022-09-17T18:27:11.734Z,10
2022-09-17T18:30:11.753Z,10
2022-09-17T18:33:11.708Z,9.9
2022-09-17T18:36:11.874Z,10
2022-09-17T18:42:11.706Z,10
2022-09-17T18:45:11.857Z,10
2022-09-17T18:48:11.670Z,10
2022-09-17T18:51:12.107Z,10
2022-09-17T18:54:11.730Z,10
2022-09-17T18:57:11.793Z,9.9
2022-09-17T19:00:11.755Z,9.9
2022-09-17T19:03:11.702Z,9.9
2022-09-17T19:06:11.796Z,9.9
2022-09-17T19:09:11.809Z,9.9
2022-09-17T19:12:11.746Z,9.9
2022-09-17T19:15:11.725Z,9.9
2022-09-17T19:18:11.690Z,9.9
2022-09-17T19:21:11.740Z,9.9
2022-09-17T19:24:11.786Z,9.9
2022-09-17T19:27:11.731Z,9.9
2022-09-17T19:30:11.805Z,9.9
2022-09-17T19:33:11.691Z,9.9
2022-09-17T19:36:11.734Z,9.9
2022-09-17T19:39:11.878Z,9.9
2022-09-17T19:42:13.258Z,9.9
2022-09-17T19:45:11.783Z,9.9
2022-09-17T19:48:11.750Z,9.9
2022-09-17T19:51:11.768Z,9.9
2022-09-17T19:54:11.771Z,10
2022-09-17T19:57:11.693Z,10
2022-09-17T20:00:11.823Z,10
2022-09-17T20:03:12.289Z,10
2022-09-17T20:06:11.807Z,10
2022-09-17T20:09:11.717Z,10
2022-09-17T20:12:11.720Z,10
2022-09-17T20:15:11.749Z,10
2022-09-17T20:18:11.788Z,10
2022-09-17T20:21:11.882Z,10
2022-09-17T20:24:11.702Z,10
2022-09-17T20:27:11.727Z,10
2022-09-17T20:30:11.748Z,10
2022-09-17T20:33:11.754Z,9.9
2022-09-17T20:36:11.911Z,9.9
2022-09-17T20:39:35.202Z,9.9
2022-09-17T20:42:11.731Z,9.9
2022-09-17T20:45:11.850Z,9.9
2022-09-17T20:48:11.719Z,9.9
2022-09-17T20:51:11.990Z,9.8
2022-09-17T20:54:11.945Z,9.8
2022-09-17T20:57:11.655Z,9.8
2022-09-17T21:00:11.788Z,9.8
2022-09-17T21:03:11.706Z,9.8
2022-09-17T21:06:11.916Z,9.8
2022-09-17T21:09:12.084Z,9.8
2022-09-17T21:12:11.748Z,9.6
2022-09-17T21:15:11.734Z,9.6
2022-09-17T21:18:11.759Z,9.6
2022-09-17T21:21:11.849Z,9.5
2022-09-17T21:24:11.932Z,9.5
2022-09-17T21:27:11.674Z,9.5
2022-09-17T21:30:11.716Z,9.4
2022-09-17T21:33:11.742Z,9.4
2022-09-17T21:36:12.042Z,9.4
2022-09-17T21:39:11.997Z,9.4
2022-09-17T21:42:11.769Z,9.4
2022-09-17T21:45:11.723Z,9.3
2022-09-17T21:48:11.735Z,9.3
2022-09-17T21:51:11.948Z,9.3
2022-09-17T21:54:12.088Z,9.3
2022-09-17T21:57:11.835Z,9.3
2022-09-17T22:00:11.903Z,9.3
2022-09-17T22:03:12.308Z,9.3
2022-09-17T22:06:11.811Z,9.3
2022-09-17T22:09:11.953Z,9.3
2022-09-17T22:12:11.816Z,9.3
2022-09-17T22:15:11.670Z,9.3
2022-09-17T22:18:19.599Z,9.3
2022-09-17T22:21:11.780Z,9.3
2022-09-17T22:24:11.983Z,9.3
2022-09-17T22:27:11.738Z,9.3
2022-09-17T22:30:11.714Z,9.1
2022-09-17T22:33:11.679Z,9.1
2022-09-17T22:36:11.728Z,9.1
2022-09-17T22:39:11.880Z,9.1
2022-09-17T22:42:11.727Z,9.1
2022-09-17T22:45:11.666Z,9.3
2022-09-17T22:48:11.688Z,9.1
2022-09-17T22:51:11.792Z,9.1
2022-09-17T22:54:12.058Z,9.1
2022-09-17T22:57:11.677Z,9.1
2022-09-17T23:00:11.775Z,9.3
2022-09-17T23:03:12.254Z,9.3
2022-09-17T23:06:11.753Z,9.3
2022-09-17T23:09:12.036Z,9.3
2022-09-17T23:12:11.799Z,9.3
2022-09-17T23:15:11.727Z,9.3
2022-09-17T23:18:11.781Z,9.3
2022-09-17T23:21:11.711Z,9.3
2022-09-17T23:24:11.985Z,9.3
2022-09-17T23:27:11.743Z,9.3
2022-09-17T23:30:11.744Z,9.3
2022-09-17T23:33:11.729Z,9.3
2022-09-17T23:36:12.033Z,9.3
2022-09-17T23:39:11.932Z,9.4
2022-09-17T23:42:11.749Z,9.4
2022-09-17T23:45:11.711Z,9.4
2022-09-17T23:48:11.750Z,9.5
2022-09-17T23:51:11.973Z,9.5
2022-09-17T23:54:12.143Z,9.5
2022-09-17T23:57:11.756Z,9.5
